Time;durP1;ratioP1;P1;durP2;ratioP2;P2;SDS_P1;SDS_P2;PMS_P1;PMS_P2;Temp;Humidity;BMP_temperature;BMP_pressure;BME280_temperature;BME280_humidity;BME280_pressure;Samples;Min_cycle;Max_cycle;Signal;HPM_P1;HPM_P2
2022/02/04 00:06:16;;;;;;;71.03;24.80;;;;;;;-6.94;99.17;99243.88;4999322;28;20410;-65
2022/02/04 00:09:05;;;;;;;65.45;22.98;;;;;;;-6.93;98.81;99248.22;5014641;28;20482;-62
2022/02/04 00:25:20;;;;;;;68.90;26.05;;;;;;;-6.91;98.74;99243.75;5000246;28;20071;-64
2022/02/04 00:27:48;;;;;;;75.22;25.88;;;;;;;-6.91;99.49;99238.47;4999143;28;20053;-64
2022/02/04 00:30:23;;;;;;;65.90;23.25;;;;;;;-6.91;99.11;99234.13;4981953;28;20532;-64
2022/02/04 00:32:50;;;;;;;73.95;24.88;;;;;;;-6.94;99.30;99243.88;5016334;28;20049;-64
2022/02/04 00:36:08;;;;;;;81.95;24.98;;;;;;;-6.91;98.79;99243.75;5014390;28;20056;-65
2022/02/04 00:40:58;;;;;;;69.00;24.23;;;;;;;-6.93;98.63;99237.69;4996741;28;20525;-65
2022/02/04 00:43:27;;;;;;;71.57;24.02;;;;;;;-7.05;97.95;99216.19;5015447;28;20053;-64
2022/02/04 00:46:03;;;;;;;74.15;25.77;;;;;;;-6.97;98.42;99244.81;5013855;28;20044;-64
2022/02/04 00:51:13;;;;;;;74.97;25.45;;;;;;;-7.04;98.73;99236.28;5015713;28;20049;-63
2022/02/04 00:53:52;;;;;;;72.80;24.38;;;;;;;-7.04;98.24;99253.81;5014504;28;20052;-64
2022/02/04 00:56:27;;;;;;;68.95;24.08;;;;;;;-7.01;99.17;99252.88;5015285;28;20068;-64
2022/02/04 01:26:09;;;;;;;83.13;26.05;;;;;;;-7.64;99.77;99258.38;4998952;28;20103;-64
2022/02/04 01:28:37;;;;;;;68.85;25.35;;;;;;;-7.82;100.00;99253.72;5029520;28;20440;-64
2022/02/04 01:31:04;;;;;;;75.45;24.77;;;;;;;-7.80;100.00;99259.75;5029066;28;20053;-64
2022/02/04 01:33:30;;;;;;;77.70;25.20;;;;;;;-7.79;100.00;99262.34;4996104;28;20037;-62
2022/02/04 01:35:57;;;;;;;71.78;25.33;;;;;;;-7.86;100.00;99267.78;4996473;28;20045;-64
2022/02/04 01:38:24;;;;;;;77.15;24.00;;;;;;;-7.88;100.00;99259.13;5012809;28;20103;-63
2022/02/04 01:40:50;;;;;;;69.00;23.77;;;;;;;-7.97;100.00;99264.63;4979824;28;20103;-63
2022/02/04 01:43:22;;;;;;;81.97;26.25;;;;;;;-7.94;100.00;99264.56;4980067;28;20049;-64
2022/02/04 01:45:50;;;;;;;68.03;25.70;;;;;;;-7.92;100.00;99271.47;5029619;28;20048;-63
2022/02/04 01:48:16;;;;;;;65.93;22.92;;;;;;;-7.93;100.00;99268.88;4981049;28;20045;-64
2022/02/04 01:50:42;;;;;;;66.43;22.48;;;;;;;-7.94;100.00;99264.56;5013148;28;20140;-64
2022/02/04 01:53:08;;;;;;;68.45;22.38;;;;;;;-7.91;100.00;99262.69;5012679;28;20136;-63
2022/02/04 01:55:34;;;;;;;56.38;19.38;;;;;;;-7.90;100.00;99255.69;5045087;28;20141;-63
2022/02/04 01:58:00;;;;;;;65.45;22.88;;;;;;;-7.89;100.00;99257.41;4976084;28;20050;-62
2022/02/04 02:00:25;;;;;;;59.85;20.77;;;;;;;-7.81;100.00;99260.66;4992694;28;20489;-62
2022/02/04 02:02:52;;;;;;;62.90;23.27;;;;;;;-7.78;100.00;99263.19;5008951;28;20130;-62
2022/02/04 02:05:17;;;;;;;67.85;24.02;;;;;;;-7.86;100.00;99257.31;4992632;28;20421;-65
2022/02/04 02:07:46;;;;;;;66.30;24.80;;;;;;;-7.87;100.00;99260.84;4992756;28;20058;-62
2022/02/04 02:10:16;;;;;;;74.35;25.23;;;;;;;-7.87;100.00;99260.84;4992895;28;20046;-65
2022/02/04 02:12:53;;;;;;;67.70;22.98;;;;;;;-7.85;100.00;99259.03;4992968;28;20165;-64
2022/02/04 02:15:39;;;;;;;66.05;24.67;;;;;;;-8.01;100.00;99237.63;5009400;28;20074;-63
2022/02/04 02:35:18;;;;;;;60.00;22.50;;;;;;;-7.68;100.00;99272.47;5012683;28;20103;-64
2022/02/04 02:51:33;;;;;;;60.60;22.90;;;;;;;-7.54;100.00;99275.53;5013496;28;20184;-64
2022/02/04 02:54:17;;;;;;;65.28;22.58;;;;;;;-7.58;100.00;99267.81;5013452;28;20528;-66
2022/02/04 02:57:12;;;;;;;65.50;24.83;;;;;;;-7.55;100.00;99284.31;5028796;28;20045;-63
2022/02/04 03:00:00;;;;;;;57.17;23.90;;;;;;;-7.59;100.00;99277.47;4995593;28;20081;-64
2022/02/04 03:02:26;;;;;;;63.83;24.23;;;;;;;-7.48;100.00;99290.25;5011533;28;20132;-63
2022/02/04 03:04:52;;;;;;;69.72;23.98;;;;;;;-7.53;100.00;99287.78;4995495;28;20560;-64
2022/02/04 03:07:18;;;;;;;75.28;25.05;;;;;;;-7.60;100.00;99291.50;4995361;28;20038;-64
2022/02/04 03:09:44;;;;;;;74.40;25.67;;;;;;;-7.55;100.00;99302.69;5028267;28;20497;-63
2022/02/04 03:12:10;;;;;;;62.70;23.13;;;;;;;-7.61;99.62;99294.16;5011454;28;20045;-64
2022/02/04 03:14:36;;;;;;;75.47;25.20;;;;;;;-7.49;99.04;99308.66;5011386;28;20144;-63
2022/02/04 03:17:06;;;;;;;71.50;26.75;;;;;;;-7.50;99.75;99307.81;5027969;28;20050;-63
2022/02/04 03:19:32;;;;;;;72.82;24.95;;;;;;;-7.48;98.75;99310.41;5011743;28;20107;-64
2022/02/04 03:22:04;;;;;;;66.35;25.05;;;;;;;-7.47;99.10;99309.47;4995028;28;20072;-64
2022/02/04 03:24:30;;;;;;;78.15;29.42;;;;;;;-7.38;99.61;99309.22;5012046;28;20084;-64
2022/02/04 03:27:01;;;;;;;68.93;25.98;;;;;;;-7.37;100.00;99297.78;5027328;28;20133;-64
2022/02/04 03:29:32;;;;;;;73.25;26.67;;;;;;;-7.37;99.94;99308.28;5010715;28;20164;-65
2022/02/04 03:32:04;;;;;;;74.10;27.92;;;;;;;-7.35;99.79;99309.97;4995458;28;20128;-65
2022/02/04 03:34:30;;;;;;;74.65;25.80;;;;;;;-7.33;99.96;99305.50;5026819;28;20100;-64
2022/02/04 03:36:56;;;;;;;81.72;27.88;;;;;;;-7.31;100.00;99308.97;4995031;28;20049;-64
2022/02/04 03:39:22;;;;;;;75.43;27.02;;;;;;;-7.35;100.00;99306.47;4994868;28;20406;-64
2022/02/04 03:41:47;;;;;;;76.10;28.58;;;;;;;-7.31;100.00;99319.47;4994902;28;20116;-65
2022/02/04 03:44:13;;;;;;;82.03;27.77;;;;;;;-7.28;100.00;99318.50;4994768;28;20049;-64
2022/02/04 03:46:39;;;;;;;72.50;26.20;;;;;;;-7.19;100.00;99326.09;5011021;28;20050;-64
2022/02/04 03:49:05;;;;;;;72.97;28.10;;;;;;;-7.29;100.00;99311.53;5027306;28;20091;-64
2022/02/04 03:51:31;;;;;;;71.97;27.63;;;;;;;-7.17;100.00;99316.38;4994104;28;20048;-64
2022/02/04 03:53:57;;;;;;;81.07;30.85;;;;;;;-7.11;100.00;99321.44;5010945;28;20093;-64
2022/02/04 03:56:23;;;;;;;74.47;27.27;;;;;;;-7.11;100.00;99321.44;5044072;28;20049;-64
2022/02/04 03:58:48;;;;;;;85.95;28.33;;;;;;;-7.05;100.00;99328.28;5010802;28;20046;-64
2022/02/04 04:01:14;;;;;;;80.45;26.38;;;;;;;-7.00;100.00;99317.63;5010763;28;20119;-63
2022/02/04 04:03:40;;;;;;;87.47;28.98;;;;;;;-7.00;100.00;99312.38;4994503;28;20409;-64
2022/02/04 04:06:07;;;;;;;86.82;28.73;;;;;;;-6.95;100.00;99320.94;5012742;28;20054;-64
2022/02/04 04:08:33;;;;;;;86.57;29.35;;;;;;;-6.92;100.00;99328.72;5044004;28;20050;-63
2022/02/04 04:10:59;;;;;;;80.35;29.20;;;;;;;-6.91;100.00;99328.69;4994674;28;20037;-64
2022/02/04 04:13:26;;;;;;;77.90;27.45;;;;;;;-6.86;100.00;99310.16;5011788;28;20053;-64
2022/02/04 04:15:52;;;;;;;93.10;30.35;;;;;;;-6.90;100.00;99313.78;5010687;28;20050;-64
2022/02/04 04:18:18;;;;;;;98.97;33.05;;;;;;;-6.88;100.00;99323.31;5010446;28;20060;-64
2022/02/04 04:20:45;;;;;;;96.35;32.63;;;;;;;-6.91;100.00;99312.03;5010442;28;20046;-64
2022/02/04 04:23:11;;;;;;;97.63;29.42;;;;;;;-6.91;100.00;99312.94;5010342;28;20173;-64
2022/02/04 04:25:37;;;;;;;86.03;32.00;;;;;;;-6.91;100.00;99318.19;5010954;28;20498;-64
2022/02/04 04:28:03;;;;;;;102.57;34.88;;;;;;;-6.91;100.00;99312.03;4994428;28;20123;-64
2022/02/04 04:30:37;;;;;;;110.85;35.35;;;;;;;-6.92;100.00;99321.69;5010720;28;20030;-64
2022/02/04 04:33:03;;;;;;;95.30;33.40;;;;;;;-6.95;100.00;99324.44;5010117;28;20038;-64
2022/02/04 04:35:29;;;;;;;96.78;34.90;;;;;;;-6.96;100.00;99327.13;4993597;28;20068;-64
2022/02/04 04:38:08;;;;;;;101.55;34.63;;;;;;;-6.98;100.00;99321.03;5025817;28;20418;-64
2022/02/04 05:29:45;;;;;;;100.20;32.40;;;;;;;-7.09;100.00;99363.44;4993116;28;20480;-64
2022/02/04 05:32:11;;;;;;;88.13;33.92;;;;;;;-7.13;100.00;99353.91;4992870;28;20092;-64
2022/02/04 05:34:38;;;;;;;87.07;31.25;;;;;;;-7.08;100.00;99358.13;4992369;28;20487;-64
2022/02/04 05:37:06;;;;;;;95.55;33.22;;;;;;;-6.96;100.00;99356.00;5025840;28;20064;-65
2022/02/04 05:39:40;;;;;;;101.55;35.08;;;;;;;-6.84;100.00;99366.13;5008752;28;20052;-65
2022/02/04 05:42:08;;;;;;;96.43;34.70;;;;;;;-6.71;100.00;99359.56;5010186;28;20058;-65
2022/02/04 05:44:39;;;;;;;99.70;35.78;;;;;;;-6.53;100.00;99362.50;4994487;28;20100;-65
2022/02/04 05:47:13;;;;;;;97.00;31.55;;;;;;;-6.58;100.00;99353.00;5014485;28;20123;-65
2022/02/04 05:49:45;;;;;;;102.90;34.10;;;;;;;-6.58;100.00;99353.00;5015653;28;20048;-67
2022/02/04 05:52:18;;;;;;;95.40;34.33;;;;;;;-6.56;100.00;99353.78;5030620;28;20041;-65
2022/02/04 05:55:21;;;;;;;98.15;35.13;;;;;;;-6.40;99.97;99361.13;5028622;28;20172;-65
2022/02/04 06:01:38;;;;;;;94.82;32.35;;;;;;;-6.32;98.33;99353.88;4981685;28;20046;-64
2022/02/04 06:24:36;;;;;;;83.10;31.60;;;;;;;-2.77;79.63;99365.38;5016531;28;20064;-64
2022/02/04 06:27:03;;;;;;;77.60;28.33;;;;;;;-2.78;78.15;99353.09;5029700;28;20056;-65
2022/02/04 06:29:29;;;;;;;78.25;28.35;;;;;;;-2.48;77.41;99355.16;5033493;28;20091;-64
2022/02/04 06:31:55;;;;;;;73.18;28.60;;;;;;;-1.91;76.02;99361.03;4992333;28;20046;-65
2022/02/04 06:34:21;;;;;;;73.32;28.15;;;;;;;-1.67;74.59;99361.53;5011338;28;20038;-65
2022/02/04 06:36:47;;;;;;;73.47;27.27;;;;;;;-1.98;75.18;99370.22;4995311;28;20133;-65
2022/02/04 06:39:13;;;;;;;65.13;24.60;;;;;;;-2.22;75.15;99357.31;5011829;28;20124;-64
2022/02/04 06:41:38;;;;;;;66.82;25.48;;;;;;;-2.63;76.70;99361.19;4997271;28;20040;-65
2022/02/04 06:44:04;;;;;;;75.03;26.38;;;;;;;-2.88;78.07;99356.25;5010441;28;20045;-65
2022/02/04 06:46:30;;;;;;;73.45;27.77;;;;;;;-2.97;79.25;99357.53;5025579;28;20589;-65
2022/02/04 06:48:56;;;;;;;64.35;26.27;;;;;;;-3.68;80.34;99334.41;5026200;28;20537;-64
2022/02/04 06:51:22;;;;;;;101.07;34.65;;;;;;;-3.64;81.49;99362.41;4992880;28;20053;-60
2022/02/04 06:53:48;;;;;;;94.22;41.83;;;;;;;-3.93;83.17;99361.06;5027207;28;20064;-62
2022/02/04 06:56:14;;;;;;;71.20;29.50;;;;;;;-3.85;82.45;99363.34;5009330;28;20125;-60
2022/02/04 06:58:40;;;;;;;74.78;28.65;;;;;;;-3.94;82.70;99366.41;5012920;28;20057;-61
2022/02/04 07:01:06;;;;;;;75.20;28.63;;;;;;;-3.98;82.72;99362.22;5013079;28;20041;-64
2022/02/04 07:03:33;;;;;;;67.75;25.95;;;;;;;-4.08;83.22;99350.31;4994225;28;20046;-64
2022/02/04 07:06:00;;;;;;;65.90;26.30;;;;;;;-3.96;82.99;99381.47;4996672;28;20042;-64
2022/02/04 07:08:33;;;;;;;70.07;25.92;;;;;;;-3.80;82.79;99371.06;5013655;28;20052;-64
2022/02/04 07:11:16;;;;;;;72.07;26.52;;;;;;;-3.81;82.86;99380.78;5001126;28;20551;-62
2022/02/04 07:14:11;;;;;;;73.20;26.30;;;;;;;-3.69;82.71;99385.53;4997015;28;20046;-63
2022/02/04 07:16:37;;;;;;;69.32;26.95;;;;;;;-3.69;82.24;99374.97;5026861;28;20041;-62
2022/02/04 07:21:47;;;;;;;72.05;26.40;;;;;;;-3.79;81.97;99391.28;5008048;28;20355;-62
2022/02/04 07:24:13;;;;;;;67.93;25.00;;;;;;;-3.47;81.18;99389.84;4994898;28;20044;-62
2022/02/04 07:26:38;;;;;;;69.72;26.15;;;;;;;-3.55;80.93;99370.81;5014365;28;20049;-62
2022/02/04 07:29:04;;;;;;;59.45;24.58;;;;;;;-3.46;80.50;99396.84;5007089;28;20049;-62
2022/02/04 07:31:34;;;;;;;69.20;26.73;;;;;;;-3.12;79.99;99390.84;5007209;28;20450;-61
2022/02/04 07:41:46;;;;;;;60.17;24.85;;;;;;;-2.62;76.43;99400.81;5012224;28;20514;-61
2022/02/04 07:44:13;;;;;;;61.15;24.42;;;;;;;-2.49;76.23;99406.34;5041907;28;20056;-62
2022/02/04 07:46:40;;;;;;;63.45;26.40;;;;;;;-2.29;75.33;99398.28;5030110;28;20564;-61
2022/02/04 07:49:06;;;;;;;57.30;23.40;;;;;;;-2.12;74.99;99401.84;5010782;28;20071;-61
2022/02/04 07:51:34;;;;;;;66.32;26.55;;;;;;;-2.22;73.62;99383.81;5010313;28;20049;-65
2022/02/04 07:53:59;;;;;;;61.97;24.17;;;;;;;-1.85;73.23;99396.94;5037363;28;20050;-62
2022/02/04 07:56:26;;;;;;;63.75;24.63;;;;;;;-1.72;72.54;99404.19;5010577;28;20049;-60
2022/02/04 07:58:56;;;;;;;67.10;24.23;;;;;;;-1.35;70.50;99402.25;5026684;28;20141;-62
2022/02/04 08:01:28;;;;;;;57.72;22.58;;;;;;;-1.28;69.55;99403.63;5013035;28;20046;-62
2022/02/04 08:04:17;;;;;;;65.43;22.88;;;;;;;-1.33;70.00;99404.78;5012010;28;20049;-63
2022/02/04 08:06:50;;;;;;;55.80;19.65;;;;;;;-0.91;68.67;99403.41;5021497;28;20180;-60
2022/02/04 08:20:37;;;;;;;57.45;22.85;;;;;;;-0.21;65.60;99407.34;5019928;28;20041;-62
2022/02/04 08:36:55;;;;;;;54.30;22.60;;;;;;;1.55;60.69;99399.09;5105973;27;20404;-64
2022/02/04 08:39:52;;;;;;;49.47;21.17;;;;;;;1.57;59.87;99402.53;5071163;28;20142;-63
2022/02/04 08:50:33;;;;;;;35.40;16.42;;;;;;;2.51;54.41;99394.38;5074038;28;20463;-64
2022/02/04 08:55:28;;;;;;;33.60;15.73;;;;;;;3.53;52.68;99399.50;5059446;28;20036;-64
2022/02/04 08:58:13;;;;;;;35.22;15.52;;;;;;;4.35;50.21;99391.56;5065114;28;20048;-58
2022/02/04 09:00:58;;;;;;;35.45;14.93;;;;;;;4.95;49.08;99405.66;5069824;28;20073;-64
2022/02/04 09:06:09;;;;;;;37.35;15.20;;;;;;;5.46;45.13;99394.41;5065542;28;20517;-64
2022/02/04 09:08:39;;;;;;;34.72;17.33;;;;;;;5.13;45.79;99397.97;5042676;28;20148;-68
2022/02/04 09:11:08;;;;;;;37.38;15.15;;;;;;;6.04;45.28;99395.81;5060539;28;20389;-65
2022/02/04 09:19:14;;;;;;;36.30;15.77;;;;;;;7.15;40.76;99388.97;5053872;28;20044;-71
2022/02/04 09:24:09;;;;;;;33.38;14.50;;;;;;;7.58;40.40;99382.44;5063556;28;20478;-69
2022/02/04 09:26:35;;;;;;;34.30;16.02;;;;;;;7.29;39.83;99369.78;5050364;28;20067;-69
2022/02/04 09:29:01;;;;;;;32.85;16.83;;;;;;;8.34;38.14;99391.53;5028944;28;20040;-66
2022/02/04 09:31:27;;;;;;;33.58;15.25;;;;;;;8.01;38.74;99390.16;5045596;28;20062;-70
2022/02/04 09:33:53;;;;;;;37.35;17.85;;;;;;;8.90;36.94;99358.38;5062968;28;20539;-70
2022/02/04 09:36:18;;;;;;;34.78;15.77;;;;;;;9.10;35.93;99382.56;5047511;28;20404;-69
2022/02/04 09:38:44;;;;;;;31.70;16.60;;;;;;;9.49;36.09;99376.97;5059129;28;20503;-70
2022/02/04 09:41:10;;;;;;;32.85;17.13;;;;;;;9.77;36.26;99381.34;5081501;28;20052;-69
2022/02/04 09:43:36;;;;;;;30.58;16.38;;;;;;;11.16;33.81;99377.03;5039984;28;20044;-71
2022/02/04 09:46:02;;;;;;;35.15;17.83;;;;;;;10.83;33.97;99379.56;5036319;28;20037;-71
2022/02/04 09:48:29;;;;;;;37.00;18.95;;;;;;;11.81;31.50;99384.56;5037780;28;20101;-66
2022/02/04 09:50:57;;;;;;;35.38;18.35;;;;;;;12.29;31.16;99378.38;5088510;28;20056;-66
2022/02/04 10:15:33;;;;;;;;;;;;;;;11.30;30.38;99376.44;5038699;28;20066;-66
2022/02/04 10:18:08;;;;;;;26.42;12.98;;;;;;;11.51;30.80;99372.44;5058230;28;20367;-66
2022/02/04 10:20:37;;;;;;;26.50;13.48;;;;;;;11.07;30.72;99364.47;5055935;28;20501;-66
2022/02/04 10:23:03;;;;;;;26.55;13.20;;;;;;;11.82;29.66;99375.41;5052084;28;20044;-65
2022/02/04 10:25:37;;;;;;;23.65;12.30;;;;;;;11.87;29.56;99377.66;5036565;28;20071;-66
2022/02/04 10:28:20;;;;;;;22.83;12.38;;;;;;;11.05;29.54;99377.31;5069343;28;20080;-66
2022/02/04 10:31:06;;;;;;;27.17;13.23;;;;;;;11.85;29.64;99379.66;5053795;28;20044;-66
2022/02/04 10:33:33;;;;;;;30.17;13.95;;;;;;;11.41;32.42;99387.94;5070068;28;20040;-66
2022/02/04 10:36:00;;;;;;;26.48;13.02;;;;;;;12.76;29.45;99391.25;5037888;28;20151;-66
2022/02/04 10:38:44;;;;;;;25.73;12.68;;;;;;;12.26;29.04;99394.97;5046829;28;20491;-68
2022/02/04 10:41:25;;;;;;;24.55;12.10;;;;;;;11.29;29.94;99385.53;5034937;28;20415;-68
2022/02/04 10:46:41;;;;;;;26.25;12.70;;;;;;;11.57;29.39;99377.19;5043980;28;20585;-67
2022/02/04 10:52:05;;;;;;;25.02;12.52;;;;;;;11.78;29.65;99384.88;5083965;28;20129;-66
2022/02/04 11:02:22;;;;;;;24.40;14.85;;;;;;;10.79;31.45;99378.19;5037044;28;20045;-67
2022/02/04 11:05:16;;;;;;;24.25;12.55;;;;;;;9.41;32.35;99375.88;5037718;28;20044;-67
2022/02/04 11:52:31;;;;;;;27.45;13.63;;;;;;;9.69;33.51;99356.97;5035427;28;20198;-66
2022/02/04 11:55:00;;;;;;;32.45;15.02;;;;;;;10.33;32.56;99360.44;5051925;28;20139;-67
2022/02/04 11:57:38;;;;;;;27.52;14.15;;;;;;;10.04;32.51;99355.28;5065130;28;20040;-66
2022/02/04 12:00:16;;;;;;;30.80;15.25;;;;;;;9.76;33.02;99360.78;5053440;28;20040;-67
2022/02/04 12:02:49;;;;;;;28.75;14.60;;;;;;;9.12;33.91;99365.25;5070497;28;20491;-66
2022/02/04 12:05:18;;;;;;;27.50;13.98;;;;;;;9.53;33.79;99367.59;5073046;28;20092;-66
2022/02/04 12:07:51;;;;;;;24.00;12.63;;;;;;;9.13;33.95;99333.72;5039528;28;20187;-66
2022/02/04 12:10:19;;;;;;;22.20;11.63;;;;;;;9.60;32.90;99368.69;5023460;28;20043;-66
2022/02/04 12:12:58;;;;;;;22.25;11.38;;;;;;;10.24;31.95;99373.03;5082472;28;20101;-66
2022/02/04 12:15:27;;;;;;;23.42;11.13;;;;;;;9.93;32.70;99379.81;5020503;28;20037;-66
2022/02/04 12:18:05;;;;;;;20.90;10.68;;;;;;;9.68;32.81;99381.41;5043885;28;20492;-66
2022/02/04 12:20:50;;;;;;;24.52;11.90;;;;;;;9.41;32.57;99381.28;5046400;28;20566;-66
2022/02/04 12:23:46;;;;;;;24.60;11.25;;;;;;;8.68;33.69;99391.09;5080735;28;20052;-66
2022/02/04 12:26:19;;;;;;;25.38;11.45;;;;;;;8.81;34.48;99380.84;5039512;28;20062;-66
2022/02/04 12:29:03;;;;;;;24.63;12.18;;;;;;;8.33;35.01;99389.81;5026823;28;20556;-66
2022/02/04 12:31:31;;;;;;;25.27;11.27;;;;;;;6.96;36.57;99379.84;5069141;28;20101;-66
2022/02/04 12:34:26;;;;;;;24.85;11.35;;;;;;;6.89;37.81;99381.38;5062081;28;20495;-66
2022/02/04 12:36:54;;;;;;;24.15;12.02;;;;;;;6.71;38.05;99394.56;5040514;28;20048;-67
2022/02/04 12:39:25;;;;;;;25.38;11.90;;;;;;;6.71;38.04;99378.44;5039476;28;20047;-63
2022/02/04 12:41:56;;;;;;;24.05;10.40;;;;;;;5.15;40.31;99390.66;5063312;28;20048;-65
2022/02/04 12:44:28;;;;;;;21.92;10.32;;;;;;;4.97;40.69;99387.59;5024685;28;20067;-66
2022/02/04 12:46:59;;;;;;;21.55;10.77;;;;;;;4.58;42.57;99393.31;5053749;28;20051;-66
2022/02/04 12:49:27;;;;;;;25.27;10.38;;;;;;;4.23;43.56;99392.50;5082808;28;20471;-66
2022/02/04 12:52:00;;;;;;;24.17;11.02;;;;;;;3.75;44.64;99403.28;5078447;28;20503;-65
2022/02/04 12:54:46;;;;;;;21.60;9.73;;;;;;;3.52;44.59;99400.50;5053690;28;20047;-65
2022/02/04 13:10:30;;;;;;;;;;;;;;;4.77;42.03;99403.44;5065498;28;20513;-65
2022/02/04 13:12:59;;;;;;;20.58;8.52;;;;;;;5.01;41.88;99406.03;5051572;28;19923;-65
2022/02/04 13:15:31;;;;;;;23.10;8.70;;;;;;;4.71;41.85;99413.78;5033573;28;20454;-66
2022/02/04 13:17:57;;;;;;;23.08;9.50;;;;;;;4.86;42.22;99401.84;5078158;28;20051;-65
2022/02/04 13:20:25;;;;;;;25.25;9.63;;;;;;;4.66;42.18;99415.97;5038168;28;20149;-65
2022/02/04 13:22:54;;;;;;;23.52;8.77;;;;;;;3.29;45.63;99401.28;5036330;28;20400;-65
2022/02/04 13:25:22;;;;;;;20.92;9.05;;;;;;;2.69;46.51;99405.56;5062561;28;20131;-65
2022/02/04 13:28:01;;;;;;;24.27;9.43;;;;;;;1.90;49.67;99415.41;5071977;28;20036;-65
2022/02/04 13:30:31;;;;;;;24.65;9.80;;;;;;;1.51;50.13;99408.22;5097768;28;20070;-65
2022/02/04 13:32:57;;;;;;;22.35;9.15;;;;;;;1.06;50.66;99412.91;5083003;28;20149;-66
2022/02/04 13:35:35;;;;;;;21.00;8.82;;;;;;;0.54;51.71;99416.13;5071410;28;20056;-66
2022/02/04 13:38:07;;;;;;;24.77;9.40;;;;;;;0.33;53.62;99422.75;5067041;28;20530;-65
2022/02/04 13:40:54;;;;;;;24.13;8.75;;;;;;;0.20;54.45;99423.50;5080245;28;20048;-64
2022/02/04 13:43:27;;;;;;;22.10;7.38;;;;;;;-0.01;55.20;99425.63;5062957;28;20048;-60
2022/02/04 13:46:03;;;;;;;24.20;8.35;;;;;;;-0.41;55.55;99416.44;5080488;28;20055;-61
2022/02/04 13:48:42;;;;;;;21.92;7.57;;;;;;;-0.54;55.57;99399.53;5073246;28;20098;-62
2022/02/04 13:51:25;;;;;;;24.10;7.32;;;;;;;-0.58;55.87;99429.84;5038454;28;20087;-60
2022/02/04 13:54:19;;;;;;;;;;;;;;;-0.74;57.22;99441.31;5046747;28;20036;-60
2022/02/04 13:56:52;;;;;;;26.90;7.30;;;;;;;-0.62;57.76;99442.44;5058867;28;20038;-61
2022/02/04 13:59:34;;;;;;;24.45;8.02;;;;;;;-0.77;57.98;99440.63;5039464;28;20029;-62
2022/02/04 14:02:14;;;;;;;21.85;7.70;;;;;;;-0.88;58.95;99449.16;5082729;28;20060;-62
2022/02/04 14:05:00;;;;;;;18.50;7.25;;;;;;;-0.97;57.38;99442.56;5035918;28;20049;-60
2022/02/04 14:07:51;;;;;;;21.55;7.13;;;;;;;-1.27;59.30;99439.78;5049000;28;20052;-60
2022/02/04 14:10:35;;;;;;;21.00;7.60;;;;;;;-1.30;60.17;99439.97;5043633;28;20036;-61
2022/02/04 14:13:07;;;;;;;21.65;8.02;;;;;;;-1.45;60.02;99443.44;5038683;28;20052;-57
2022/02/04 14:15:35;;;;;;;21.83;8.40;;;;;;;-1.96;61.77;99394.84;5061347;28;20040;-63
2022/02/04 14:18:07;;;;;;;21.05;7.47;;;;;;;-1.87;62.43;99447.34;5089590;28;20218;-59
2022/02/04 14:20:34;;;;;;;25.90;8.88;;;;;;;-1.87;61.48;99462.38;5068796;28;20131;-58
2022/02/04 14:23:01;;;;;;;21.58;7.65;;;;;;;-1.93;62.17;99450.34;5071942;28;20052;-63
2022/02/04 14:25:27;;;;;;;17.30;7.50;;;;;;;-1.94;62.72;99451.25;5075871;28;20434;-61
2022/02/04 14:27:57;;;;;;;24.08;7.90;;;;;;;-1.88;62.89;99461.53;5087830;28;20052;-62
2022/02/04 14:30:28;;;;;;;21.13;8.32;;;;;;;-2.12;63.85;99457.47;5035501;28;20041;-61
2022/02/04 14:33:14;;;;;;;21.20;7.75;;;;;;;-2.17;63.32;99448.91;5059794;28;20040;-63
2022/02/04 14:36:04;;;;;;;18.27;7.97;;;;;;;-2.01;63.57;99468.38;5082507;28;20101;-58
2022/02/04 14:53:01;;;;;;;19.17;6.60;;;;;;;-2.42;63.30;99437.72;5055914;28;20055;-63
2022/02/04 15:05:17;;;;;;;25.67;8.52;;;;;;;-2.38;65.09;99456.97;5062438;28;20116;-63
2022/02/04 15:07:44;;;;;;;21.50;8.02;;;;;;;-2.36;65.24;99460.41;5024595;28;20112;-61
2022/02/04 15:10:16;;;;;;;23.05;8.00;;;;;;;-2.60;67.03;99461.56;5067962;28;20051;-61
2022/02/04 15:12:44;;;;;;;24.98;8.48;;;;;;;-2.50;67.52;99458.41;5090467;28;20044;-62
2022/02/04 15:15:10;;;;;;;23.00;10.32;;;;;;;-2.53;67.54;99473.59;5042758;28;20180;-59
2022/02/04 15:17:37;;;;;;;24.27;10.10;;;;;;;-2.54;67.95;99469.22;5055111;28;20123;-63
2022/02/04 15:20:05;;;;;;;27.95;9.80;;;;;;;-2.59;68.10;99468.59;5041440;28;20105;-63
2022/02/04 15:22:30;;;;;;;26.13;10.48;;;;;;;-2.54;68.92;99456.00;5044138;28;20055;-63
2022/02/04 15:25:01;;;;;;;24.67;10.98;;;;;;;-2.58;69.76;99454.44;5035394;28;20048;-62
2022/02/04 15:27:29;;;;;;;29.33;12.73;;;;;;;-2.61;69.73;99459.88;5050715;28;20051;-63
2022/02/04 15:29:55;;;;;;;34.33;14.25;;;;;;;-2.62;70.62;99468.75;5045502;28;20040;-61
2022/02/04 15:32:22;;;;;;;39.05;15.32;;;;;;;-2.69;71.18;99463.75;5045221;28;20055;-61
2022/02/04 15:34:50;;;;;;;31.88;12.40;;;;;;;-2.77;71.83;99465.91;5030191;28;20596;-61
2022/02/04 15:37:16;;;;;;;27.75;12.65;;;;;;;-2.84;72.63;99467.13;5017149;28;20135;-64
2022/02/04 15:39:42;;;;;;;29.15;10.90;;;;;;;-2.86;71.43;99463.66;5048425;28;20183;-61
2022/02/04 15:42:12;;;;;;;20.98;8.73;;;;;;;-3.03;69.93;99453.03;5063460;28;20044;-61
2022/02/04 15:44:57;;;;;;;23.02;8.65;;;;;;;-2.84;69.38;99468.91;5059862;28;20742;-59
2022/02/04 15:47:31;;;;;;;22.00;9.43;;;;;;;-3.11;69.87;99476.31;5026293;28;20044;-60
2022/02/04 15:50:23;;;;;;;29.77;9.05;;;;;;;-3.08;70.33;99481.47;5058850;28;20398;-60
2022/02/04 15:53:02;;;;;;;18.75;6.55;;;;;;;-3.15;69.78;99463.22;5031247;28;20116;-65
2022/02/04 16:05:57;;;;;;;18.20;6.78;;;;;;;-3.16;68.79;99490.59;5054228;28;20139;-60
2022/02/04 16:08:23;;;;;;;20.30;7.25;;;;;;;-3.17;68.70;99488.88;5044117;28;20075;-63
2022/02/04 16:10:55;;;;;;;18.60;7.57;;;;;;;-3.27;69.66;99492.84;5018235;28;20500;-60
2022/02/04 16:14:03;;;;;;;21.88;7.78;;;;;;;-3.22;69.98;99474.16;5042523;28;20067;-58
2022/02/04 16:21:41;;;;;;;20.38;6.45;;;;;;;-3.38;69.86;99484.56;5047237;28;20036;-64
2022/02/04 16:29:22;;;;;;;16.70;5.40;;;;;;;-3.53;70.34;99479.94;5052717;28;20157;-65
2022/02/04 16:31:49;;;;;;;16.10;6.55;;;;;;;-3.37;70.12;99480.97;5048719;28;20098;-64
2022/02/04 16:34:15;;;;;;;17.08;6.53;;;;;;;-3.38;70.99;99495.13;5048553;28;20048;-64
2022/02/04 16:36:44;;;;;;;19.05;7.38;;;;;;;-3.35;70.74;99492.34;5035297;28;20047;-64
2022/02/04 16:39:12;;;;;;;24.63;7.60;;;;;;;-3.47;71.01;99474.41;5029909;28;20033;-61
2022/02/04 16:42:03;;;;;;;19.80;6.50;;;;;;;-3.44;72.15;99498.91;5060626;28;20064;-65
2022/02/04 16:44:32;;;;;;;21.05;7.03;;;;;;;-3.52;72.10;99486.94;5058034;28;20050;-63
2022/02/04 16:47:00;;;;;;;20.35;7.95;;;;;;;-3.50;72.46;99477.19;5088461;28;20058;-63
2022/02/04 16:49:27;;;;;;;18.33;7.30;;;;;;;-3.55;73.12;99487.06;5078338;28;20048;-63
2022/02/04 16:51:53;;;;;;;28.13;8.82;;;;;;;-3.68;73.10;99487.63;5051761;28;20321;-62
2022/02/04 16:54:20;;;;;;;21.77;8.60;;;;;;;-3.65;74.50;99503.34;5056695;28;20135;-63
2022/02/04 16:56:46;;;;;;;22.55;8.25;;;;;;;-3.58;73.68;99497.75;5026560;28;20067;-61
2022/02/04 16:59:12;;;;;;;23.13;8.63;;;;;;;-3.86;74.12;99498.09;5058309;28;20044;-62
2022/02/04 17:01:38;;;;;;;22.50;8.45;;;;;;;-3.81;73.91;99507.53;5068243;28;20039;-63
2022/02/04 17:04:05;;;;;;;23.27;9.20;;;;;;;-3.93;74.49;99487.78;5090751;28;20051;-63
2022/02/04 17:06:39;;;;;;;19.88;8.40;;;;;;;-3.99;73.94;99509.16;5058168;28;20082;-63
2022/02/04 17:11:43;;;;;;;22.25;9.13;;;;;;;-4.01;74.34;99511.03;5062877;28;20052;-60
2022/02/04 17:14:10;;;;;;;22.27;9.05;;;;;;;-4.10;74.53;99505.25;5070070;28;20051;-63
2022/02/04 17:16:41;;;;;;;19.42;9.07;;;;;;;-4.24;74.72;99514.63;5046014;28;20101;-62
2022/02/04 17:19:08;;;;;;;23.52;10.65;;;;;;;-4.21;74.08;99517.09;5060668;28;20059;-65
2022/02/04 17:21:35;;;;;;;15.98;7.30;;;;;;;-4.19;74.01;99528.47;5054434;28;20240;-62
2022/02/04 17:24:02;;;;;;;21.98;9.52;;;;;;;-4.23;74.17;99532.16;5069146;28;20039;-63
2022/02/04 17:26:33;;;;;;;23.23;9.70;;;;;;;-4.43;74.04;99513.59;5054273;28;20139;-63
2022/02/04 17:29:03;;;;;;;20.33;9.02;;;;;;;-4.46;73.85;99514.63;5065008;28;20049;-62
2022/02/04 17:31:29;;;;;;;24.02;9.80;;;;;;;-4.49;74.22;99519.16;5080362;28;20071;-61